Time;durP1;ratioP1;P1;durP2;ratioP2;P2;SDS_P1;SDS_P2;PMS_P1;PMS_P2;Temp;Humidity;BMP_temperature;BMP_pressure;BME280_temperature;BME280_humidity;BME280_pressure;Samples;Min_cycle;Max_cycle;Signal;HPM_P1;HPM_P2
2022/04/30 00:04:23;;;;;;;2.40;1.58;;;16.10;57.80;;;;;;10495766;28;20037;-62
2022/04/30 00:09:24;;;;;;;2.67;1.77;;;16.10;57.70;;;;;;10496246;28;20041;-62
2022/04/30 00:14:25;;;;;;;2.10;1.60;;;16.10;57.70;;;;;;10496111;28;20415;-61
2022/04/30 00:19:27;;;;;;;1.95;1.63;;;16.10;57.80;;;;;;10496139;28;20029;-61
2022/04/30 00:24:28;;;;;;;2.55;1.70;;;16.10;57.80;;;;;;10495583;28;20055;-62
2022/04/30 00:29:30;;;;;;;1.55;1.10;;;16.00;57.80;;;;;;10495423;28;20078;-61
2022/04/30 00:34:31;;;;;;;2.33;1.30;;;16.00;57.70;;;;;;10494130;28;20036;-59
2022/04/30 00:39:33;;;;;;;1.80;1.50;;;16.00;57.70;;;;;;10493727;28;20475;-61
2022/04/30 00:44:34;;;;;;;3.00;1.73;;;16.00;57.70;;;;;;10509130;28;20119;-62
2022/04/30 00:49:35;;;;;;;2.03;1.27;;;16.00;57.70;;;;;;10493860;28;20427;-62
2022/04/30 00:54:38;;;;;;;1.98;1.25;;;16.00;57.70;;;;;;10508767;28;20064;-62
2022/04/30 00:59:40;;;;;;;2.95;1.27;;;16.00;57.70;;;;;;10493228;28;20370;-60
2022/04/30 01:04:40;;;;;;;2.15;1.58;;;16.00;57.70;;;;;;10508730;28;20067;-60
2022/04/30 01:09:43;;;;;;;2.03;1.40;;;16.00;57.70;;;;;;10492709;28;20052;-60
2022/04/30 01:14:45;;;;;;;2.38;1.67;;;16.00;57.60;;;;;;10508133;28;20050;-59
2022/04/30 01:19:47;;;;;;;2.03;1.60;;;15.90;57.50;;;;;;10507360;28;20035;-59
2022/04/30 01:24:59;;;;;;;3.40;1.48;;;15.90;57.50;;;;;;10492627;28;20033;-60
2022/04/30 01:30:01;;;;;;;2.10;1.65;;;15.90;57.50;;;;;;10492207;28;20476;-58
2022/04/30 01:40:22;;;;;;;;;;;15.90;57.50;;;;;;10494316;28;20048;-60
2022/04/30 01:45:22;;;;;;;2.05;1.52;;;15.90;57.50;;;;;;10493774;28;19909;-61
2022/04/30 01:50:23;;;;;;;2.00;1.40;;;15.90;57.40;;;;;;10509277;28;20237;-62
2022/04/30 01:55:24;;;;;;;3.75;1.70;;;15.90;57.40;;;;;;10509021;28;20032;-59
2022/04/30 02:00:25;;;;;;;2.53;1.40;;;15.90;57.40;;;;;;10493915;28;20117;-60
2022/04/30 02:05:26;;;;;;;3.38;2.00;;;15.90;57.30;;;;;;10508812;28;20028;-60
2022/04/30 02:10:28;;;;;;;2.00;1.65;;;15.80;57.20;;;;;;10508914;28;20542;-61
2022/04/30 02:15:31;;;;;;;2.38;1.60;;;15.90;57.30;;;;;;10509042;28;20025;-62
2022/04/30 02:20:34;;;;;;;1.88;1.30;;;15.80;57.20;;;;;;10492951;28;20108;-61
2022/04/30 02:25:36;;;;;;;1.90;1.25;;;15.80;57.20;;;;;;10508117;28;20025;-61
2022/04/30 02:30:38;;;;;;;2.05;1.20;;;15.80;57.20;;;;;;10498610;28;20024;-61
2022/04/30 02:35:45;;;;;;;2.13;1.17;;;15.80;57.20;;;;;;10499874;28;20541;-60
2022/04/30 02:40:46;;;;;;;2.03;1.52;;;15.80;57.10;;;;;;10499926;28;20086;-60
2022/04/30 02:45:47;;;;;;;2.22;1.45;;;15.80;57.10;;;;;;10499632;28;20120;-60
2022/04/30 02:50:48;;;;;;;2.28;1.52;;;15.80;57.20;;;;;;10515386;28;20123;-61
2022/04/30 02:55:49;;;;;;;2.53;1.50;;;15.80;57.20;;;;;;10499207;28;20108;-59
2022/04/30 03:00:52;;;;;;;2.20;1.45;;;15.80;57.20;;;;;;10499777;28;20099;-60
2022/04/30 03:05:53;;;;;;;2.55;1.48;;;15.80;57.20;;;;;;10499074;28;20031;-60
2022/04/30 03:10:56;;;;;;;3.45;1.85;;;15.70;57.10;;;;;;10514317;28;20071;-61
2022/04/30 03:26:36;;;;;;;3.10;1.42;;;15.70;57.10;;;;;;10498176;28;20123;-61
2022/04/30 03:31:39;;;;;;;2.50;1.90;;;15.70;57.70;;;;;;10498119;28;20123;-60
2022/04/30 03:36:41;;;;;;;2.35;1.10;;;15.70;57.10;;;;;;10497699;28;20111;-59
2022/04/30 03:41:42;;;;;;;3.53;1.88;;;15.70;57.10;;;;;;10496623;28;20031;-61
2022/04/30 03:46:43;;;;;;;1.92;1.40;;;15.60;57.10;;;;;;10497756;28;20369;-61
2022/04/30 03:51:44;;;;;;;2.30;1.50;;;15.70;57.10;;;;;;10497118;28;20028;-60
2022/04/30 03:56:45;;;;;;;1.80;1.40;;;15.70;57.10;;;;;;10496865;28;20109;-61
2022/04/30 04:01:46;;;;;;;3.10;1.88;;;15.70;57.00;;;;;;10496774;28;20052;-61
2022/04/30 04:06:47;;;;;;;2.35;1.23;;;15.60;57.00;;;;;;10493600;28;20131;-58
2022/04/30 04:11:48;;;;;;;2.30;1.58;;;15.60;57.00;;;;;;10494954;28;20472;-60
2022/04/30 04:22:08;;;;;;;2.15;1.60;;;15.60;57.00;;;;;;10497122;28;20044;-60
2022/04/30 04:27:08;;;;;;;2.33;1.42;;;15.60;57.00;;;;;;10496691;28;20099;-59
2022/04/30 04:32:09;;;;;;;2.03;1.30;;;15.60;57.00;;;;;;10496501;28;20059;-59
2022/04/30 04:37:10;;;;;;;2.38;1.67;;;15.60;57.00;;;;;;10496640;28;20445;-60
2022/04/30 04:42:10;;;;;;;1.77;1.30;;;15.60;57.00;;;;;;10496229;28;20120;-59
2022/04/30 04:47:12;;;;;;;2.90;1.52;;;15.60;57.00;;;;;;10496095;28;20392;-60
2022/04/30 04:52:13;;;;;;;2.35;1.33;;;15.60;57.00;;;;;;10511282;28;20048;-60
2022/04/30 04:57:15;;;;;;;3.03;1.75;;;15.60;57.00;;;;;;10495872;28;20028;-62
2022/04/30 05:02:16;;;;;;;5.00;1.98;;;15.60;57.00;;;;;;10495699;28;20035;-60
2022/04/30 05:07:17;;;;;;;2.45;1.83;;;15.60;57.10;;;;;;10495703;28;20033;-60
2022/04/30 05:12:18;;;;;;;2.72;1.48;;;15.60;57.10;;;;;;10495354;28;20031;-59
2022/04/30 05:17:19;;;;;;;2.47;1.70;;;15.50;57.10;;;;;;10495389;28;20041;-60
2022/04/30 05:22:20;;;;;;;2.25;1.60;;;15.60;57.00;;;;;;10510822;28;20391;-62
2022/04/30 05:27:21;;;;;;;2.40;1.63;;;15.50;57.10;;;;;;10493693;28;20063;-61
2022/04/30 05:32:21;;;;;;;2.08;1.50;;;15.50;57.20;;;;;;10495044;28;20507;-61
2022/04/30 05:37:22;;;;;;;2.47;1.58;;;15.50;57.10;;;;;;10495051;28;20074;-59
2022/04/30 05:42:24;;;;;;;3.00;1.75;;;15.50;57.30;;;;;;10494980;28;20106;-61
2022/04/30 05:47:25;;;;;;;2.72;1.90;;;15.50;57.20;;;;;;10495248;28;20028;-60
2022/04/30 05:52:25;;;;;;;3.00;1.58;;;15.50;57.30;;;;;;10509931;28;20063;-61
2022/04/30 05:57:26;;;;;;;3.47;2.20;;;15.50;57.30;;;;;;10510459;28;20056;-61
2022/04/30 06:02:27;;;;;;;2.40;1.48;;;15.50;57.30;;;;;;10495899;28;20090;-60
2022/04/30 06:07:30;;;;;;;2.47;1.70;;;15.50;57.40;;;;;;10502967;28;20064;-60
2022/04/30 06:12:31;;;;;;;2.75;1.85;;;15.50;57.40;;;;;;10501968;28;20039;-61
2022/04/30 06:17:32;;;;;;;3.90;2.97;;;15.50;57.50;;;;;;10501749;28;20051;-60
2022/04/30 06:22:34;;;;;;;3.15;1.70;;;15.50;57.50;;;;;;10501829;28;20154;-60
2022/04/30 06:27:35;;;;;;;2.05;1.50;;;15.50;57.50;;;;;;10501545;28;20500;-60
2022/04/30 06:32:36;;;;;;;4.00;2.17;;;15.50;57.50;;;;;;10501139;28;20052;-60
2022/04/30 06:37:36;;;;;;;2.78;2.10;;;15.50;57.50;;;;;;10501271;28;20154;-60
2022/04/30 06:42:40;;;;;;;2.40;1.83;;;15.50;57.60;;;;;;10500923;28;20025;-60
2022/04/30 06:47:41;;;;;;;2.47;2.03;;;15.50;57.70;;;;;;10501150;28;20493;-61
2022/04/30 06:58:01;;;;;;;3.00;2.10;;;15.50;57.70;;;;;;10501156;28;20074;-60
2022/04/30 07:03:08;;;;;;;1.90;1.20;;;15.50;57.70;;;;;;10500403;28;20025;-61
2022/04/30 07:08:08;;;;;;;2.50;1.80;;;15.50;57.70;;;;;;10499962;28;20480;-60
2022/04/30 07:13:09;;;;;;;2.80;1.98;;;15.50;57.80;;;;;;10515229;28;20032;-60
2022/04/30 07:18:10;;;;;;;2.40;1.60;;;15.50;57.80;;;;;;10499764;28;20036;-60
2022/04/30 07:23:11;;;;;;;3.58;1.85;;;15.50;57.90;;;;;;10499275;28;20047;-60
2022/04/30 07:28:11;;;;;;;4.38;2.00;;;15.50;58.00;;;;;;10499345;28;20455;-61
2022/04/30 07:33:12;;;;;;;2.70;1.98;;;15.40;58.30;;;;;;10514126;28;20396;-60
2022/04/30 07:38:13;;;;;;;2.58;1.80;;;15.50;58.30;;;;;;10499548;28;20055;-59
2022/04/30 07:43:13;;;;;;;3.70;2.42;;;15.50;58.40;;;;;;10498773;28;20063;-61
2022/04/30 07:48:15;;;;;;;3.65;2.47;;;15.60;58.40;;;;;;10498707;28;20044;-60
2022/04/30 07:53:16;;;;;;;3.22;1.90;;;15.60;58.40;;;;;;10498097;28;20032;-60
2022/04/30 07:58:17;;;;;;;2.95;2.03;;;15.60;58.40;;;;;;10498086;28;20021;-59
2022/04/30 08:03:17;;;;;;;2.40;1.95;;;15.60;58.40;;;;;;10497951;28;20067;-61
2022/04/30 08:08:18;;;;;;;3.45;2.20;;;15.60;58.50;;;;;;10497470;28;20056;-59
2022/04/30 08:13:18;;;;;;;2.33;1.90;;;15.60;58.60;;;;;;10495864;28;20517;-61
2022/04/30 08:18:19;;;;;;;3.17;2.33;;;15.50;58.60;;;;;;10497128;28;20579;-61
2022/04/30 08:23:22;;;;;;;3.63;2.10;;;15.50;58.70;;;;;;10512641;28;20071;-59
2022/04/30 08:28:23;;;;;;;2.65;1.85;;;15.50;58.60;;;;;;10496399;28;20051;-60
2022/04/30 08:33:24;;;;;;;2.65;2.00;;;15.50;58.60;;;;;;10496406;28;20086;-60
2022/04/30 08:38:25;;;;;;;3.20;2.08;;;15.50;58.70;;;;;;10512026;28;20024;-61
2022/04/30 08:43:28;;;;;;;2.63;1.88;;;15.50;58.80;;;;;;10512339;28;20158;-61
2022/04/30 08:48:30;;;;;;;2.83;2.13;;;15.50;58.80;;;;;;10511731;28;20032;-57
2022/04/30 08:53:31;;;;;;;2.90;2.30;;;15.50;58.80;;;;;;10495839;28;20109;-61
2022/04/30 08:58:33;;;;;;;3.03;2.05;;;15.50;58.80;;;;;;10495796;28;20040;-60
2022/04/30 09:03:35;;;;;;;3.75;1.98;;;15.60;58.90;;;;;;10511317;28;20043;-61
2022/04/30 09:08:46;;;;;;;6.45;2.75;;;15.60;58.80;;;;;;10495936;28;20035;-59
2022/04/30 09:13:47;;;;;;;4.80;2.40;;;15.70;58.80;;;;;;10510843;28;20036;-61
2022/04/30 09:18:49;;;;;;;3.13;2.30;;;15.70;58.60;;;;;;10511180;28;20111;-58
2022/04/30 09:23:50;;;;;;;2.60;2.28;;;15.70;58.60;;;;;;10495221;28;20086;-60
2022/04/30 09:28:51;;;;;;;3.83;2.25;;;15.60;58.70;;;;;;10511078;28;20069;-60
2022/04/30 09:33:56;;;;;;;3.33;2.40;;;15.70;58.80;;;;;;10494953;28;20076;-61
2022/04/30 09:38:57;;;;;;;5.78;2.28;;;15.60;58.80;;;;;;10514569;28;20033;-60
2022/04/30 09:44:00;;;;;;;3.20;2.00;;;15.70;58.80;;;;;;10503224;28;20107;-60
2022/04/30 09:54:21;;;;;;;3.20;1.98;;;15.70;58.70;;;;;;10503446;28;20028;-60
2022/04/30 09:59:24;;;;;;;3.47;2.60;;;15.80;58.70;;;;;;10503292;28;20392;-58
2022/04/30 10:04:26;;;;;;;3.05;2.45;;;15.70;58.80;;;;;;10518450;28;20024;-60
2022/04/30 10:09:38;;;;;;;4.30;2.72;;;15.70;58.80;;;;;;10517732;28;20177;-59
2022/04/30 10:14:54;;;;;;;4.00;2.13;;;15.60;58.80;;;;;;10517567;28;20396;-59
2022/04/30 10:19:59;;;;;;;3.83;2.67;;;15.70;59.50;;;;;;10502023;28;20067;-60
2022/04/30 10:25:01;;;;;;;5.07;2.58;;;15.60;58.80;;;;;;10501407;28;20082;-60
2022/04/30 10:30:02;;;;;;;4.47;2.90;;;15.60;58.80;;;;;;10516883;28;20039;-59
2022/04/30 10:35:04;;;;;;;3.70;2.30;;;15.60;58.90;;;;;;10501234;28;20067;-59
2022/04/30 10:40:08;;;;;;;3.90;2.97;;;15.60;59.00;;;;;;10501003;28;20373;-59
2022/04/30 10:45:15;;;;;;;3.35;2.55;;;15.60;59.00;;;;;;10501284;28;20483;-61
2022/04/30 10:50:16;;;;;;;3.15;2.83;;;15.60;59.00;;;;;;10500382;28;20394;-60
2022/04/30 10:55:19;;;;;;;5.10;3.03;;;15.60;59.00;;;;;;10500212;28;20115;-58
2022/04/30 11:00:21;;;;;;;5.15;3.20;;;15.60;59.00;;;;;;10500582;28;20048;-60
2022/04/30 11:05:23;;;;;;;3.13;2.53;;;15.60;59.00;;;;;;10500334;28;20051;-59
2022/04/30 11:10:23;;;;;;;2.88;2.00;;;15.60;59.00;;;;;;10499956;28;20473;-61
2022/04/30 11:15:25;;;;;;;3.63;2.50;;;15.60;59.10;;;;;;10499952;28;20078;-60
2022/04/30 11:20:27;;;;;;;2.30;2.00;;;15.60;59.10;;;;;;10499616;28;20037;-59
2022/04/30 11:25:38;;;;;;;3.13;2.50;;;15.60;59.10;;;;;;10499177;28;20036;-60
2022/04/30 11:30:41;;;;;;;3.47;2.72;;;15.60;59.20;;;;;;10498821;28;20083;-59
2022/04/30 11:35:53;;;;;;;3.92;2.33;;;15.60;59.20;;;;;;10499528;28;20032;-59
2022/04/30 11:41:05;;;;;;;4.38;2.90;;;15.60;59.20;;;;;;10498714;28;20059;-60
2022/04/30 11:46:06;;;;;;;3.10;2.35;;;15.60;59.20;;;;;;10498689;28;20453;-61
2022/04/30 11:51:07;;;;;;;3.10;2.20;;;15.60;59.20;;;;;;10498453;28;20116;-61
2022/04/30 11:56:08;;;;;;;3.53;2.25;;;15.60;59.20;;;;;;10513574;28;20067;-60
2022/04/30 12:01:26;;;;;;;3.17;2.28;;;15.60;59.20;;;;;;10497181;28;20384;-61
2022/04/30 12:06:28;;;;;;;2.97;2.17;;;15.60;59.20;;;;;;10497579;28;20036;-61
2022/04/30 12:11:39;;;;;;;3.60;2.55;;;15.60;59.20;;;;;;10513117;28;20483;-61
2022/04/30 12:16:42;;;;;;;3.38;2.38;;;15.60;59.20;;;;;;10511699;28;20522;-60
2022/04/30 12:27:04;;;;;;;3.83;2.83;;;15.60;59.20;;;;;;10510612;28;20063;-61
2022/04/30 12:32:07;;;;;;;4.53;2.65;;;15.50;59.20;;;;;;10496506;28;20048;-61
2022/04/30 12:37:08;;;;;;;2.80;2.00;;;15.60;59.40;;;;;;10496699;28;20040;-60
2022/04/30 12:42:11;;;;;;;3.45;2.88;;;15.50;59.20;;;;;;10511997;28;20028;-61
2022/04/30 12:47:11;;;;;;;3.60;2.33;;;15.50;59.20;;;;;;10511769;28;20028;-62
2022/04/30 12:52:12;;;;;;;3.92;2.80;;;15.50;59.20;;;;;;10495942;28;20536;-60
2022/04/30 12:57:13;;;;;;;4.68;2.85;;;15.50;59.00;;;;;;10496159;28;20396;-60
2022/04/30 13:02:14;;;;;;;3.20;2.70;;;15.50;59.00;;;;;;10496113;28;20093;-60
2022/04/30 13:07:14;;;;;;;3.58;2.72;;;15.60;59.10;;;;;;10495657;28;20051;-61
2022/04/30 13:17:34;;;;;;;3.03;2.43;;;15.60;59.10;;;;;;10495670;28;20471;-60
2022/04/30 13:22:35;;;;;;;3.88;2.53;;;15.50;59.10;;;;;;10495547;28;20278;-61
2022/04/30 13:27:36;;;;;;;4.60;2.92;;;15.60;59.20;;;;;;10495341;28;20458;-59
2022/04/30 13:32:36;;;;;;;3.13;2.75;;;15.60;59.20;;;;;;10494921;28;20484;-60
2022/04/30 13:37:40;;;;;;;3.33;2.50;;;15.60;59.10;;;;;;10495257;28;20643;-62
2022/04/30 13:42:42;;;;;;;4.05;2.88;;;15.60;59.20;;;;;;10495073;28;20423;-60
2022/04/30 13:47:43;;;;;;;2.70;2.08;;;15.60;59.30;;;;;;10510567;28;20033;-61
2022/04/30 13:52:45;;;;;;;3.25;2.33;;;15.60;59.30;;;;;;10494634;28;20035;-61
2022/04/30 13:57:45;;;;;;;3.25;2.42;;;15.60;59.40;;;;;;10494942;28;20024;-60
2022/04/30 14:02:46;;;;;;;4.35;2.63;;;15.60;59.30;;;;;;10510527;28;20107;-60
2022/04/30 14:07:47;;;;;;;4.18;2.97;;;15.60;59.30;;;;;;10494284;28;20029;-60
2022/04/30 14:12:48;;;;;;;3.47;2.45;;;15.60;59.30;;;;;;10494484;28;20473;-61
2022/04/30 14:18:15;;;;;;;3.88;2.72;;;15.60;59.20;;;;;;10494333;28;20072;-61
2022/04/30 14:23:16;;;;;;;3.33;2.72;;;15.60;59.10;;;;;;10495327;28;20421;-61
2022/04/30 14:28:19;;;;;;;3.30;2.72;;;15.60;59.20;;;;;;10501580;28;20036;-61
2022/04/30 14:33:21;;;;;;;3.60;2.72;;;15.60;59.20;;;;;;10501740;28;20043;-61
2022/04/30 14:38:22;;;;;;;5.47;2.88;;;15.60;59.10;;;;;;10501334;28;20081;-59
2022/04/30 14:43:23;;;;;;;3.75;2.53;;;15.60;59.00;;;;;;10501028;28;20025;-61
2022/04/30 14:48:23;;;;;;;3.45;2.55;;;15.60;59.00;;;;;;10500697;28;20028;-61
2022/04/30 14:53:24;;;;;;;3.67;3.22;;;15.60;59.10;;;;;;10500652;28;20174;-61
2022/04/30 14:58:25;;;;;;;3.50;2.55;;;15.60;59.10;;;;;;10500426;28;20027;-61
2022/04/30 15:03:25;;;;;;;3.20;2.10;;;15.60;59.20;;;;;;10500475;28;20107;-57
2022/04/30 15:08:26;;;;;;;4.00;2.20;;;15.70;59.20;;;;;;10515653;28;20020;-59
2022/04/30 15:13:27;;;;;;;3.40;2.35;;;15.60;59.20;;;;;;10500145;28;20460;-60
2022/04/30 15:18:27;;;;;;;4.05;2.30;;;15.60;59.40;;;;;;10515556;28;20021;-60
2022/04/30 15:23:28;;;;;;;3.22;2.22;;;15.60;59.90;;;;;;10499427;28;20024;-60
2022/04/30 15:28:29;;;;;;;2.67;2.28;;;15.60;59.40;;;;;;10499888;28;20029;-61
2022/04/30 15:33:30;;;;;;;3.45;2.60;;;15.60;59.40;;;;;;10498843;28;20051;-61
2022/04/30 15:38:31;;;;;;;2.78;2.30;;;15.60;59.40;;;;;;10497897;28;20469;-60
2022/04/30 15:43:32;;;;;;;2.90;2.50;;;15.60;59.50;;;;;;10498663;28;20162;-60
2022/04/30 15:53:54;;;;;;;2.83;2.40;;;15.60;59.60;;;;;;10499948;28;20474;-59
2022/04/30 15:58:56;;;;;;;3.05;2.30;;;15.60;59.60;;;;;;10497976;28;20419;-61
2022/04/30 16:03:56;;;;;;;3.17;2.42;;;15.60;59.70;;;;;;10497855;28;20503;-61
2022/04/30 16:08:58;;;;;;;2.40;1.98;;;15.60;59.60;;;;;;10513777;28;20052;-60
2022/04/30 16:13:58;;;;;;;2.70;2.20;;;15.60;59.60;;;;;;10497412;28;20078;-60
2022/04/30 16:19:00;;;;;;;2.78;2.30;;;15.60;59.60;;;;;;10512906;28;20500;-60
2022/04/30 16:24:02;;;;;;;2.65;2.30;;;15.60;59.60;;;;;;10496888;28;20540;-60
2022/04/30 16:29:08;;;;;;;3.95;2.70;;;15.60;59.50;;;;;;10496890;28;20458;-60
2022/04/30 16:34:10;;;;;;;3.88;2.10;;;15.60;59.50;;;;;;10512294;28;20041;-60
2022/04/30 16:39:10;;;;;;;3.28;2.35;;;15.60;59.40;;;;;;10512049;28;20069;-60
2022/04/30 16:44:11;;;;;;;3.05;2.10;;;15.60;59.40;;;;;;10496225;28;20085;-61
2022/04/30 16:49:12;;;;;;;3.30;2.40;;;15.60;59.30;;;;;;10495975;28;20071;-60
2022/04/30 16:54:12;;;;;;;2.83;1.98;;;15.60;59.30;;;;;;10494804;28;20024;-60
2022/04/30 16:59:13;;;;;;;3.28;2.40;;;15.60;59.40;;;;;;10496366;28;20476;-60
2022/04/30 17:04:14;;;;;;;2.83;2.22;;;15.60;59.40;;;;;;10511532;28;20122;-58
2022/04/30 17:09:14;;;;;;;2.83;2.20;;;15.50;59.40;;;;;;10495902;28;20107;-59
2022/04/30 17:14:15;;;;;;;2.65;2.10;;;15.50;59.30;;;;;;10511293;28;20032;-60
2022/04/30 17:19:16;;;;;;;2.95;2.25;;;15.50;59.70;;;;;;10495373;28;20080;-60
2022/04/30 17:24:16;;;;;;;3.15;2.20;;;15.50;59.30;;;;;;10495303;28;20120;-60
2022/04/30 17:29:17;;;;;;;3.33;2.60;;;15.50;59.30;;;;;;10495696;28;20115;-60
2022/04/30 17:39:37;;;;;;;3.37;2.03;;;15.50;59.30;;;;;;10495267;28;20515;-60
2022/04/30 17:44:38;;;;;;;2.75;2.40;;;15.50;59.30;;;;;;10494957;28;20111;-60
2022/04/30 17:49:38;;;;;;;2.58;2.10;;;15.50;59.30;;;;;;10494914;28;20437;-61
2022/04/30 17:54:39;;;;;;;2.67;2.25;;;15.50;59.30;;;;;;10510280;28;20469;-59
2022/04/30 17:59:40;;;;;;;2.58;2.00;;;15.50;59.30;;;;;;10498032;28;20046;-61
2022/04/30 18:04:41;;;;;;;2.17;1.92;;;15.50;59.30;;;;;;10502899;28;20056;-60
2022/04/30 18:09:42;;;;;;;2.47;1.90;;;15.50;59.30;;;;;;10517883;28;20020;-60
2022/04/30 18:14:44;;;;;;;3.22;2.38;;;15.50;59.30;;;;;;10501965;28;20507;-62
2022/04/30 18:19:46;;;;;;;2.70;2.10;;;15.50;59.30;;;;;;10501808;28;20033;-61
2022/04/30 18:24:46;;;;;;;2.75;2.45;;;15.50;59.30;;;;;;10501954;28;20460;-60
2022/04/30 18:29:47;;;;;;;2.78;2.58;;;15.50;59.30;;;;;;10501534;28;20111;-60
2022/04/30 18:34:48;;;;;;;2.78;2.10;;;15.50;59.30;;;;;;10516746;28;20059;-60
2022/04/30 18:39:53;;;;;;;3.47;3.05;;;15.50;59.30;;;;;;10501608;28;20134;-60
2022/04/30 18:44:54;;;;;;;3.67;2.30;;;15.50;59.30;;;;;;10500895;28;20028;-60
2022/04/30 18:49:55;;;;;;;2.58;2.03;;;15.50;59.30;;;;;;10501271;28;20033;-60
2022/04/30 19:05:36;;;;;;;2.97;1.80;;;15.50;59.30;;;;;;10500598;28;20036;-60
2022/04/30 19:10:37;;;;;;;3.10;2.35;;;15.50;59.30;;;;;;10499806;28;20083;-61
2022/04/30 19:15:38;;;;;;;2.90;2.03;;;15.40;59.30;;;;;;10515847;28;20031;-60
2022/04/30 19:20:44;;;;;;;2.35;2.10;;;15.50;59.30;;;;;;10499659;28;20072;-60
2022/04/30 19:25:44;;;;;;;2.47;1.88;;;15.40;59.30;;;;;;10499756;28;20020;-61
2022/04/30 19:30:45;;;;;;;2.72;2.17;;;15.40;59.30;;;;;;10498233;28;20028;-60
2022/04/30 19:35:47;;;;;;;2.60;1.90;;;15.50;59.30;;;;;;10498404;28;20048;-60
2022/04/30 19:40:48;;;;;;;2.85;2.13;;;15.40;59.30;;;;;;10513556;28;20060;-61
2022/04/30 19:45:49;;;;;;;3.15;2.22;;;15.50;59.30;;;;;;10497613;28;20052;-61
2022/04/30 19:50:50;;;;;;;3.13;2.33;;;15.40;59.30;;;;;;10496076;28;20111;-60
2022/04/30 19:55:50;;;;;;;2.80;2.20;;;15.50;59.40;;;;;;10497260;28;20115;-61
2022/04/30 20:00:51;;;;;;;2.75;2.35;;;15.40;59.30;;;;;;10512648;28;20514;-60
2022/04/30 20:05:52;;;;;;;2.63;1.98;;;15.50;59.40;;;;;;10496768;28;20111;-60
2022/04/30 20:21:33;;;;;;;2.80;2.40;;;15.50;59.30;;;;;;10508744;28;20279;-60
2022/04/30 20:26:36;;;;;;;2.92;2.00;;;15.50;59.30;;;;;;10511898;28;20036;-60
2022/04/30 20:36:56;;;;;;;3.40;2.45;;;15.50;59.40;;;;;;10495645;28;20149;-61
2022/04/30 20:41:58;;;;;;;2.75;2.33;;;15.40;59.30;;;;;;10511498;28;20131;-60
2022/04/30 20:46:59;;;;;;;3.22;2.38;;;15.40;59.30;;;;;;10495168;28;20033;-62
2022/04/30 20:52:01;;;;;;;2.45;1.90;;;15.50;59.30;;;;;;10495640;28;20388;-61
2022/04/30 20:57:02;;;;;;;2.13;1.92;;;15.40;59.20;;;;;;10494909;28;20020;-60
2022/04/30 21:02:04;;;;;;;2.88;2.58;;;15.40;59.90;;;;;;10495479;28;20362;-61
2022/04/30 21:07:05;;;;;;;2.95;2.13;;;15.40;59.30;;;;;;10495307;28;20025;-61
2022/04/30 21:12:06;;;;;;;2.78;2.05;;;15.40;59.30;;;;;;10494514;28;20037;-60
2022/04/30 21:17:07;;;;;;;3.67;2.63;;;15.40;59.30;;;;;;10494521;28;20070;-61
2022/04/30 21:22:08;;;;;;;2.67;2.17;;;15.40;59.30;;;;;;10509877;28;20595;-61
2022/04/30 21:27:10;;;;;;;2.95;1.95;;;15.40;59.30;;;;;;10494340;28;20047;-60
2022/04/30 21:32:11;;;;;;;2.53;2.15;;;15.40;59.30;;;;;;10510909;28;20047;-60
2022/04/30 21:37:11;;;;;;;2.70;2.10;;;15.40;59.30;;;;;;10502689;28;20480;-60
2022/04/30 21:42:12;;;;;;;3.10;2.38;;;15.40;59.30;;;;;;10502545;28;20453;-61
2022/04/30 21:47:13;;;;;;;2.75;2.17;;;15.40;59.30;;;;;;10502302;28;20024;-60
2022/04/30 21:52:13;;;;;;;2.38;2.13;;;15.40;59.30;;;;;;10518331;28;20455;-61
2022/04/30 22:02:33;;;;;;;3.00;2.53;;;15.40;59.90;;;;;;10502268;28;20040;-61
2022/04/30 22:07:34;;;;;;;2.45;2.10;;;15.40;59.30;;;;;;10501498;28;20028;-60
2022/04/30 22:12:37;;;;;;;2.60;2.10;;;15.40;59.30;;;;;;10516875;28;20025;-60
2022/04/30 22:17:38;;;;;;;2.63;2.35;;;15.40;59.30;;;;;;10501058;28;20025;-60
2022/04/30 22:22:38;;;;;;;2.70;2.17;;;15.40;59.30;;;;;;10500761;28;20056;-61
2022/04/30 22:27:39;;;;;;;3.20;2.58;;;15.40;59.30;;;;;;10501373;28;20060;-59
2022/04/30 22:32:40;;;;;;;3.08;2.58;;;15.40;59.30;;;;;;10500498;28;20128;-61
2022/04/30 22:37:40;;;;;;;2.65;2.45;;;15.40;59.30;;;;;;10500710;28;20043;-61
2022/04/30 22:42:49;;;;;;;3.55;3.08;;;15.40;59.40;;;;;;10500709;28;20029;-60
2022/04/30 22:47:49;;;;;;;3.53;2.50;;;15.40;59.30;;;;;;10499484;28;20044;-61
2022/04/30 22:52:50;;;;;;;2.40;2.20;;;15.40;59.30;;;;;;10499552;28;20440;-61
2022/04/30 22:57:51;;;;;;;3.33;2.20;;;15.40;59.30;;;;;;10499537;28;20431;-57
2022/04/30 23:02:52;;;;;;;2.70;2.40;;;15.40;59.30;;;;;;10499450;28;20028;-61
2022/04/30 23:07:53;;;;;;;2.90;2.53;;;15.40;59.30;;;;;;10499266;28;20036;-62
2022/04/30 23:13:27;;;;;;;2.97;2.20;;;15.30;59.30;;;;;;10498904;28;20064;-61
2022/04/30 23:18:15;;;;;;;2.10;1.90;;;15.40;59.30;;;;;;10498611;28;20032;-60
2022/04/30 23:23:16;;;;;;;2.80;2.28;;;15.40;59.30;;;;;;10498558;28;20496;-61
2022/04/30 23:28:17;;;;;;;2.90;2.60;;;15.40;59.30;;;;;;10498493;28;20108;-59
2022/04/30 23:33:18;;;;;;;4.57;2.58;;;15.30;59.30;;;;;;10498174;28;20085;-61
2022/04/30 23:38:18;;;;;;;3.00;2.38;;;15.30;59.20;;;;;;10498049;28;20104;-61
2022/04/30 23:43:19;;;;;;;2.88;2.33;;;15.30;59.20;;;;;;10513359;28;20507;-59
2022/04/30 23:48:20;;;;;;;3.10;2.47;;;15.30;59.20;;;;;;10497726;28;20052;-60
2022/04/30 23:53:21;;;;;;;2.58;2.03;;;15.30;59.20;;;;;;10497395;28;20068;-61
2022/04/30 23:58:21;;;;;;;3.72;2.70;;;15.30;59.30;;;;;;10511568;28;20104;-61
